KSPS/SPS METAR and TAF weather

Enter ICAO airport designator
Station Type Date Time Source
KSPS METAR 2019/11/21 02:52 UTC NOAA

KSPS 210252Z AUTO 16013KT 10SM BKN060 19/17 A2985 RMK AO2 SLP099 60000 T01890167 51014


Station Type Date Time Source
KSPS Decoded METAR 2019/11/21 02:52 UTC NOAA

WICHITA FALLS SHEPPARD AFB, TX, United States (KSPS) 33-59N 98-30W 308M
Nov 20, 2019 - 09:52 PM EST / 2019.11.21 0252 UTC
Wind: from the SSE (160 degrees) at 15 MPH (13 KT):0
Visibility: 10 mile(s):0
Sky conditions: mostly cloudy
Temperature: 66.0 F (18.9 C)
Dew Point: 62.1 F (16.7 C)
Relative Humidity: 87%
Pressure (altimeter): 29.85 in. Hg (1010 hPa)
Pressure tendency: 0.04 inches (1.4 hPa) higher than three hours ago
ob: KSPS 210252Z AUTO 16013KT 10SM BKN060 19/17 A2985 RMK AO2 SLP099 60000 T01890167 51014
cycle: 3

Station Type Date Time Source
KSPS TAF 2019/11/20 18:42 UTC NOAA

TAF KSPS 201741Z 2018/2118 18018G28KT P6SM VCSH BKN050
TEMPO 2022/2102 4SM -TSRA BKN025CB
FM210200 20014G20KT P6SM BKN050
FM211500 35011KT P6SM BKN035

Example: see airport list